Time;durP1;ratioP1;P1;durP2;ratioP2;P2;SDS_P1;SDS_P2;PMS_P1;PMS_P2;Temp;Humidity;BMP_temperature;BMP_pressure;BME280_temperature;BME280_humidity;BME280_pressure;Samples;Min_cycle;Max_cycle;Signal;HPM_P1;HPM_P2
2021/01/29 00:00:13;;;;;;;54.30;47.42;;;22.20;99.90;;;;;;6096591;23;20010;-27
2021/01/29 00:02:40;;;;;;;65.25;47.30;;;22.20;99.90;;;;;;6096603;23;20437;-27
2021/01/29 00:05:07;;;;;;;56.00;45.83;;;22.10;99.90;;;;;;6096088;23;20410;-28
2021/01/29 00:07:34;;;;;;;51.08;44.15;;;22.10;99.90;;;;;;6096211;23;20426;-27
2021/01/29 00:10:00;;;;;;;46.03;40.60;;;22.10;99.90;;;;;;6096757;23;20030;-27
2021/01/29 00:12:26;;;;;;;46.03;40.60;;;22.10;99.90;;;;;;6096470;23;20464;-27
2021/01/29 00:14:52;;;;;;;45.90;38.55;;;22.10;99.90;;;;;;6096502;23;19998;-27
2021/01/29 00:17:18;;;;;;;43.30;36.95;;;22.10;99.90;;;;;;6071168;23;20349;-27
2021/01/29 00:19:44;;;;;;;43.60;37.38;;;22.00;99.90;;;;;;6096672;23;20102;-27
2021/01/29 00:22:10;;;;;;;42.67;37.67;;;22.00;99.90;;;;;;6096054;23;20003;-27
2021/01/29 00:24:37;;;;;;;42.10;35.72;;;22.00;99.90;;;;;;6096447;23;20014;-27
2021/01/29 00:27:04;;;;;;;38.22;34.08;;;22.00;99.90;;;;;;6096652;23;20010;-27
2021/01/29 00:29:31;;;;;;;37.38;31.63;;;22.10;99.90;;;;;;6096789;23;20365;-27
2021/01/29 00:31:57;;;;;;;38.33;32.55;;;22.00;99.90;;;;;;6096443;23;20088;-27
2021/01/29 00:34:22;;;;;;;36.83;30.88;;;22.00;99.90;;;;;;6097410;23;20806;-27
2021/01/29 00:36:48;;;;;;;34.83;29.67;;;22.00;99.90;;;;;;6096172;23;20073;-27
2021/01/29 00:39:14;;;;;;;31.10;27.40;;;21.90;99.90;;;;;;6096507;23;20444;-27
2021/01/29 00:41:40;;;;;;;31.75;27.27;;;21.90;99.90;;;;;;6096438;23;20013;-27
2021/01/29 00:44:06;;;;;;;30.00;25.05;;;21.90;99.90;;;;;;6096281;23;20085;-27
2021/01/29 00:46:32;;;;;;;32.00;27.08;;;21.90;99.90;;;;;;6096396;23;20034;-27
2021/01/29 00:48:58;;;;;;;30.92;25.05;;;21.90;99.90;;;;;;6096216;23;19995;-27
2021/01/29 00:51:23;;;;;;;26.52;23.65;;;21.90;99.90;;;;;;6096414;23;20006;-27
2021/01/29 00:53:49;;;;;;;28.80;23.75;;;21.90;99.90;;;;;;6095652;23;20006;-27
2021/01/29 00:56:15;;;;;;;25.30;20.85;;;21.90;99.90;;;;;;6096181;23;20009;-27
2021/01/29 00:58:41;;;;;;;24.20;21.48;;;21.90;99.90;;;;;;6096029;23;20007;-27
2021/01/29 01:01:07;;;;;;;24.77;21.05;;;21.90;99.90;;;;;;6094605;23;20413;-27
2021/01/29 01:03:33;;;;;;;22.73;20.05;;;21.90;99.90;;;;;;6095928;23;20006;-27
2021/01/29 01:05:59;;;;;;;22.67;18.55;;;21.80;99.90;;;;;;6096170;23;20003;-27
2021/01/29 01:08:25;;;;;;;20.17;17.45;;;21.80;99.90;;;;;;6095186;23;20086;-27
2021/01/29 01:10:51;;;;;;;21.80;18.45;;;21.80;99.90;;;;;;6096016;23;20058;-27
2021/01/29 01:13:17;;;;;;;25.73;17.83;;;21.80;99.90;;;;;;6096573;23;20018;-27
2021/01/29 01:15:43;;;;;;;18.55;15.60;;;21.80;99.90;;;;;;6096050;23;20520;-27
2021/01/29 01:18:09;;;;;;;20.45;15.10;;;21.80;99.90;;;;;;6096282;23;20006;-27
2021/01/29 01:20:36;;;;;;;18.80;15.38;;;21.80;99.90;;;;;;6096256;23;20010;-27
2021/01/29 01:23:02;;;;;;;17.20;15.07;;;21.80;99.90;;;;;;6096105;23;20449;-27
2021/01/29 01:25:29;;;;;;;18.55;15.40;;;21.80;99.90;;;;;;6096330;23;20006;-27
2021/01/29 01:27:55;;;;;;;20.80;15.30;;;21.80;99.90;;;;;;6095915;23;20469;-27
2021/01/29 01:30:32;;;;;;;15.90;13.43;;;21.80;99.90;;;;;;6096136;23;20030;-27
2021/01/29 01:32:58;;;;;;;18.77;13.53;;;21.80;99.90;;;;;;6095468;23;20715;-27
2021/01/29 01:35:24;;;;;;;14.63;13.10;;;21.80;99.90;;;;;;6095109;23;20089;-27
2021/01/29 01:37:50;;;;;;;15.73;13.07;;;21.80;99.90;;;;;;6094109;23;20011;-27
2021/01/29 01:40:19;;;;;;;15.38;12.82;;;21.70;99.90;;;;;;6095565;23;20013;-27
2021/01/29 01:42:45;;;;;;;15.02;13.13;;;21.70;99.90;;;;;;6095682;23;20017;-27
2021/01/29 01:45:29;;;;;;;15.55;12.52;;;21.70;99.90;;;;;;6094207;23;20006;-27
2021/01/29 01:48:16;;;;;;;14.95;11.82;;;21.70;99.90;;;;;;6095367;23;20054;-27
2021/01/29 01:50:47;;;;;;;12.43;11.13;;;21.70;99.90;;;;;;6096020;23;20013;-27
2021/01/29 01:53:18;;;;;;;14.52;11.18;;;21.70;99.90;;;;;;6095397;23;20002;-27
2021/01/29 01:55:45;;;;;;;14.93;10.93;;;21.70;99.90;;;;;;6094160;23;20006;-27
2021/01/29 01:58:12;;;;;;;13.07;10.63;;;21.70;99.90;;;;;;6095509;23;20037;-27
2021/01/29 02:00:38;;;;;;;18.13;10.83;;;21.70;99.90;;;;;;6095398;23;20061;-27
2021/01/29 02:03:07;;;;;;;13.30;10.57;;;21.70;99.90;;;;;;6094830;23;20003;-27
2021/01/29 02:05:39;;;;;;;13.68;10.30;;;21.70;99.90;;;;;;6094788;23;20006;-27
2021/01/29 02:08:08;;;;;;;12.88;10.52;;;21.70;99.90;;;;;;6093779;23;20063;-27
2021/01/29 02:10:34;;;;;;;12.63;10.55;;;21.70;99.90;;;;;;6094024;23;20071;-27
2021/01/29 02:13:03;;;;;;;11.32;10.13;;;21.60;99.90;;;;;;6095790;23;20422;-27
2021/01/29 02:15:32;;;;;;;12.80;10.25;;;21.70;99.90;;;;;;6095809;23;20085;-27
2021/01/29 02:18:12;;;;;;;12.15;9.80;;;21.70;99.90;;;;;;6095272;23;20126;-27
2021/01/29 02:21:08;;;;;;;11.15;9.25;;;21.70;99.90;;;;;;6069768;23;20390;-27
2021/01/29 02:23:40;;;;;;;10.55;8.63;;;21.60;99.90;;;;;;6095329;23;20013;-25
2021/01/29 02:26:40;;;;;;;12.10;9.48;;;21.60;99.90;;;;;;6094914;23;20077;-25
2021/01/29 02:29:32;;;;;;;11.88;9.15;;;21.60;99.90;;;;;;6073269;23;20006;-25
2021/01/29 02:32:16;;;;;;;11.48;8.93;;;21.60;99.90;;;;;;6095633;23;19998;-25
2021/01/29 02:35:00;;;;;;;9.55;8.13;;;21.60;99.90;;;;;;6095305;23;20006;-26
2021/01/29 02:37:50;;;;;;;9.57;8.20;;;21.50;99.90;;;;;;6095357;23;20325;-25
2021/01/29 02:40:40;;;;;;;10.60;8.38;;;21.60;99.90;;;;;;6069856;23;20085;-25
2021/01/29 02:43:36;;;;;;;11.32;9.07;;;21.60;99.90;;;;;;6095433;23;20006;-26
2021/01/29 02:46:08;;;;;;;9.13;8.05;;;21.50;99.90;;;;;;6095659;23;20330;-25
2021/01/29 02:48:59;;;;;;;13.13;8.82;;;21.60;99.90;;;;;;6095057;23;20337;-25
2021/01/29 02:51:38;;;;;;;8.82;7.55;;;21.50;99.90;;;;;;6095734;23;20002;-25
2021/01/29 02:54:22;;;;;;;9.27;7.45;;;21.50;99.90;;;;;;6095132;23;20081;-25
2021/01/29 02:56:58;;;;;;;11.27;7.85;;;21.50;99.90;;;;;;6095239;23;20011;-25
2021/01/29 02:59:33;;;;;;;10.57;7.50;;;21.50;99.90;;;;;;6095145;23;20333;-26
2021/01/29 03:02:03;;;;;;;9.85;7.15;;;21.50;99.90;;;;;;6095343;23;20402;-26
2021/01/29 03:04:59;;;;;;;10.25;7.95;;;21.50;99.90;;;;;;6095168;23;20034;-25
2021/01/29 03:07:45;;;;;;;10.40;7.40;;;21.50;99.90;;;;;;6085585;23;20444;-26
2021/01/29 03:10:28;;;;;;;9.18;6.60;;;21.40;99.90;;;;;;6094257;23;20041;-25
2021/01/29 03:12:59;;;;;;;10.82;7.25;;;21.40;99.90;;;;;;6095028;23;20390;-25
2021/01/29 03:15:32;;;;;;;7.05;6.35;;;21.50;99.90;;;;;;6095117;23;20060;-25
2021/01/29 03:18:15;;;;;;;7.82;6.55;;;21.40;99.90;;;;;;6095161;23;20030;-25
2021/01/29 03:21:17;;;;;;;8.55;6.60;;;21.40;99.90;;;;;;6095140;23;20030;-26
2021/01/29 03:23:51;;;;;;;8.63;6.30;;;21.40;99.90;;;;;;6094858;23;20012;-26
2021/01/29 03:26:25;;;;;;;7.95;6.50;;;21.40;99.90;;;;;;6095107;23;20010;-25
2021/01/29 03:28:57;;;;;;;8.63;6.38;;;21.40;99.90;;;;;;6095035;23;20049;-25
2021/01/29 03:31:25;;;;;;;9.55;5.55;;;21.40;99.90;;;;;;6069395;23;20034;-25
2021/01/29 03:34:15;;;;;;;9.25;6.22;;;21.40;99.90;;;;;;6094842;23;20367;-25
2021/01/29 03:36:55;;;;;;;9.25;6.93;;;21.40;99.90;;;;;;6094936;23;20010;-25
2021/01/29 03:39:35;;;;;;;8.85;5.70;;;21.40;99.90;;;;;;6095029;23;20021;-26
2021/01/29 03:42:21;;;;;;;9.07;5.50;;;21.40;99.90;;;;;;6094874;23;20382;-25
2021/01/29 03:44:56;;;;;;;8.00;6.45;;;21.40;99.90;;;;;;6095121;23;20429;-25
2021/01/29 03:47:31;;;;;;;6.68;5.85;;;21.40;99.90;;;;;;6094782;23;20009;-25
2021/01/29 03:50:21;;;;;;;10.35;6.13;;;21.40;99.90;;;;;;6094976;23;19998;-25
2021/01/29 03:52:59;;;;;;;9.15;5.78;;;21.30;99.90;;;;;;6094945;23;20006;-25
2021/01/29 03:55:38;;;;;;;7.53;5.97;;;21.30;99.90;;;;;;6094832;23;20030;-25
2021/01/29 03:58:26;;;;;;;6.95;6.03;;;21.30;99.90;;;;;;6069240;23;20089;-25
2021/01/29 04:01:10;;;;;;;9.68;5.65;;;21.30;99.90;;;;;;6095065;23;20006;-25
2021/01/29 04:03:39;;;;;;;6.95;5.35;;;21.20;99.90;;;;;;6094938;23;19998;-25
2021/01/29 04:06:12;;;;;;;6.57;5.80;;;21.30;99.90;;;;;;6069094;23;20007;-26
2021/01/29 04:08:58;;;;;;;7.28;5.80;;;21.30;99.90;;;;;;6094727;23;20002;-25
2021/01/29 04:11:32;;;;;;;7.50;5.65;;;21.20;99.90;;;;;;6094419;23;20022;-25
2021/01/29 04:14:03;;;;;;;7.05;5.68;;;21.30;99.90;;;;;;6094666;23;19998;-25
2021/01/29 04:16:40;;;;;;;6.35;4.97;;;21.20;99.90;;;;;;6095011;23;20431;-25
2021/01/29 04:19:12;;;;;;;7.45;6.03;;;21.30;99.90;;;;;;6095284;23;20010;-25
2021/01/29 04:22:00;;;;;;;6.70;5.90;;;21.30;99.90;;;;;;6094850;23;20428;-25
2021/01/29 04:24:32;;;;;;;6.28;5.45;;;21.20;99.90;;;;;;6094623;23;20049;-25
2021/01/29 04:27:21;;;;;;;7.43;5.28;;;21.20;99.90;;;;;;6094646;23;20026;-25
2021/01/29 04:30:02;;;;;;;7.20;5.28;;;21.20;99.90;;;;;;6068564;23;20057;-25
2021/01/29 04:32:42;;;;;;;7.68;5.40;;;21.20;99.90;;;;;;6094619;23;20089;-27
2021/01/29 04:35:10;;;;;;;6.35;5.38;;;21.20;99.90;;;;;;6096049;23;20333;-28
2021/01/29 04:37:42;;;;;;;7.45;5.25;;;21.20;99.90;;;;;;6096177;23;20014;-28
2021/01/29 04:40:28;;;;;;;6.10;5.50;;;21.20;99.90;;;;;;6096516;23;20053;-28
2021/01/29 04:43:17;;;;;;;8.90;5.40;;;21.20;99.90;;;;;;6071812;23;20010;-28
2021/01/29 04:46:06;;;;;;;6.88;5.20;;;21.20;99.90;;;;;;6098143;23;20007;-28
2021/01/29 04:48:37;;;;;;;6.10;4.93;;;21.20;99.90;;;;;;6097462;23;20010;-28
2021/01/29 04:51:15;;;;;;;6.32;5.28;;;21.20;99.90;;;;;;6098291;23;20002;-28
2021/01/29 04:54:06;;;;;;;6.93;5.20;;;21.20;99.90;;;;;;6098242;23;20005;-28
2021/01/29 04:57:05;;;;;;;7.20;5.35;;;21.20;99.90;;;;;;6097989;23;20003;-28
2021/01/29 04:59:41;;;;;;;7.18;5.05;;;21.10;99.90;;;;;;6072557;23;20315;-28
2021/01/29 05:02:07;;;;;;;6.78;5.22;;;21.20;99.90;;;;;;6097967;23;20337;-28
2021/01/29 05:04:59;;;;;;;9.55;5.47;;;21.10;99.90;;;;;;6097786;23;20006;-28
2021/01/29 05:07:49;;;;;;;6.85;5.18;;;21.10;99.90;;;;;;6097333;23;20002;-28
2021/01/29 05:10:48;;;;;;;6.57;4.90;;;21.20;99.90;;;;;;6097948;23;20003;-28
2021/01/29 05:13:32;;;;;;;6.05;4.68;;;21.10;99.90;;;;;;6069218;23;20019;-28
2021/01/29 05:16:16;;;;;;;10.75;4.93;;;21.10;99.90;;;;;;6069042;23;19999;-28
2021/01/29 05:19:05;;;;;;;7.88;5.40;;;21.10;99.90;;;;;;6069669;23;20051;-28
2021/01/29 05:22:02;;;;;;;5.20;4.60;;;21.20;99.90;;;;;;6066270;23;20003;-28
2021/01/29 05:24:45;;;;;;;5.67;4.87;;;21.10;99.90;;;;;;6067501;23;20006;-28
2021/01/29 05:27:41;;;;;;;6.05;4.60;;;21.10;99.90;;;;;;6067752;23;20442;-28
2021/01/29 05:30:11;;;;;;;5.82;4.68;;;21.10;99.90;;;;;;6068232;23;20437;-27
2021/01/29 05:32:54;;;;;;;5.78;4.97;;;21.10;99.90;;;;;;6068265;23;20327;-28
2021/01/29 05:36:07;;;;;;;7.68;5.30;;;21.10;99.90;;;;;;6068209;23;20006;-28
2021/01/29 05:38:51;;;;;;;7.75;5.40;;;21.10;99.90;;;;;;5953405;24;20408;-28
2021/01/29 05:41:53;;;;;;;7.70;4.57;;;21.10;99.90;;;;;;5953181;23;20106;-28
2021/01/29 05:44:40;;;;;;;7.78;4.85;;;21.10;99.90;;;;;;5953212;24;20000;-28
2021/01/29 05:47:06;;;;;;;11.00;5.57;;;21.10;99.90;;;;;;5953267;24;20013;-28
2021/01/29 05:49:57;;;;;;;7.40;5.53;;;21.10;99.90;;;;;;5953428;24;20016;-28
2021/01/29 05:52:47;;;;;;;8.93;4.88;;;21.10;99.90;;;;;;5953027;24;20043;-28
2021/01/29 05:55:43;;;;;;;8.07;5.72;;;21.10;99.90;;;;;;5953036;24;20547;-27
2021/01/29 05:58:42;;;;;;;7.53;5.65;;;21.00;99.90;;;;;;5952894;24;20016;-28
2021/01/29 06:01:42;;;;;;;7.25;5.10;;;21.00;99.90;;;;;;5952090;24;20113;-28
2021/01/29 06:04:30;;;;;;;7.72;5.53;;;21.00;99.90;;;;;;5951671;24;20013;-28
2021/01/29 06:07:15;;;;;;;5.30;4.63;;;21.00;99.90;;;;;;5952366;24;20043;-29
2021/01/29 06:10:07;;;;;;;6.57;5.30;;;21.00;99.90;;;;;;5953148;24;20020;-27
2021/01/29 06:12:51;;;;;;;7.40;4.88;;;21.00;99.90;;;;;;5974954;24;20057;-28
2021/01/29 06:15:29;;;;;;;6.10;5.45;;;21.00;99.90;;;;;;6068022;23;20014;-26
2021/01/29 06:17:58;;;;;;;;;;;21.00;99.90;;;;;;6097366;23;20009;-26
2021/01/29 06:20:57;;;;;;;7.07;5.18;;;21.00;99.90;;;;;;6097378;23;20043;-26
2021/01/29 06:24:01;;;;;;;6.28;5.28;;;21.00;99.90;;;;;;6097320;23;20031;-26
2021/01/29 06:26:49;;;;;;;7.22;5.38;;;21.00;99.90;;;;;;6097249;23;20402;-26
2021/01/29 06:29:23;;;;;;;;;;;21.00;99.90;;;;;;6096979;23;20002;-26
2021/01/29 06:32:22;;;;;;;6.57;5.07;;;21.10;99.90;;;;;;6096306;23;20290;-26
2021/01/29 06:35:29;;;;;;;9.10;4.82;;;21.00;99.90;;;;;;6096306;23;20078;-26
2021/01/29 06:38:17;;;;;;;6.55;5.03;;;21.00;99.90;;;;;;6090555;23;20433;-26
2021/01/29 06:41:36;;;;;;;6.93;5.53;;;21.00;99.90;;;;;;6096751;23;20009;-26
2021/01/29 06:44:33;;;;;;;8.50;6.32;;;21.00;99.90;;;;;;6096387;23;20006;-26
2021/01/29 06:47:07;;;;;;;7.78;5.57;;;21.00;99.90;;;;;;6096414;23;20002;-26
2021/01/29 06:50:00;;;;;;;6.95;5.65;;;21.00;99.90;;;;;;6096288;23;19998;-28
2021/01/29 06:52:41;;;;;;;7.18;5.68;;;21.00;99.90;;;;;;6096948;23;20025;-28
2021/01/29 06:55:12;;;;;;;8.15;6.00;;;21.00;99.90;;;;;;6097513;23;19999;-28
2021/01/29 06:58:11;;;;;;;6.70;4.75;;;21.00;99.90;;;;;;6096984;23;20039;-28
2021/01/29 07:01:09;;;;;;;9.80;5.55;;;20.90;99.90;;;;;;6097354;23;20033;-28
2021/01/29 07:03:50;;;;;;;8.98;6.75;;;20.90;99.90;;;;;;6051256;23;20062;-28
2021/01/29 07:06:21;;;;;;;9.65;7.55;;;20.90;99.90;;;;;;6073968;23;20341;-27
2021/01/29 07:09:18;;;;;;;12.98;10.13;;;20.90;99.90;;;;;;6095206;23;20496;-26
2021/01/29 07:12:16;;;;;;;15.27;11.98;;;20.90;99.90;;;;;;6095615;23;20139;-26
2021/01/29 07:14:54;;;;;;;20.25;18.05;;;20.90;99.90;;;;;;6096603;23;19999;-26
2021/01/29 07:17:29;;;;;;;25.98;21.17;;;20.90;99.90;;;;;;6096462;23;20006;-26
2021/01/29 07:20:27;;;;;;;24.50;20.75;;;20.90;99.90;;;;;;6096245;23;20009;-26
2021/01/29 07:23:12;;;;;;;28.13;23.58;;;20.80;99.90;;;;;;6090798;23;20010;-26
2021/01/29 07:25:51;;;;;;;31.63;21.92;;;20.80;99.90;;;;;;6097030;23;20010;-25
2021/01/29 07:28:44;;;;;;;20.13;14.88;;;20.80;99.90;;;;;;6096667;23;20003;-25
2021/01/29 07:31:36;;;;;;;17.40;13.10;;;20.30;99.90;;;;;;6096365;23;20012;-25
2021/01/29 07:34:22;;;;;;;18.63;11.23;;;20.00;99.90;;;;;;6096313;23;20754;-25
2021/01/29 07:37:25;;;;;;;17.38;11.95;;;19.80;99.90;;;;;;6096135;23;20050;-24
2021/01/29 07:39:57;;;;;;;17.30;11.73;;;19.70;99.90;;;;;;6096669;23;20032;-25
2021/01/29 07:42:42;;;;;;;14.13;9.15;;;19.60;99.90;;;;;;6096873;23;20373;-25
2021/01/29 07:45:16;;;;;;;18.05;10.00;;;19.50;99.90;;;;;;6069866;23;20002;-24
2021/01/29 07:47:42;;;;;;;15.77;7.18;;;19.50;99.90;;;;;;6096371;23;20065;-25
2021/01/29 07:50:29;;;;;;;13.95;7.63;;;19.40;99.90;;;;;;6096461;23;20465;-25
2021/01/29 07:53:13;;;;;;;15.73;8.52;;;19.30;99.90;;;;;;6096494;23;20073;-25
2021/01/29 07:56:16;;;;;;;29.67;9.52;;;19.30;99.90;;;;;;6096331;23;20041;-24
2021/01/29 07:59:13;;;;;;;13.45;9.00;;;19.30;99.90;;;;;;6096619;23;20021;-24
2021/01/29 08:01:42;;;;;;;;;;;19.40;99.90;;;;;;6096587;23;20002;-24
2021/01/29 08:04:28;;;;;;;16.50;9.52;;;19.40;99.90;;;;;;6096444;23;19901;-25
2021/01/29 08:06:53;;;;;;;15.02;8.80;;;19.40;99.90;;;;;;6076081;23;20038;-25
2021/01/29 08:09:32;;;;;;;14.23;9.27;;;19.40;99.90;;;;;;6096643;23;20405;-25
2021/01/29 08:12:01;;;;;;;15.43;8.98;;;19.10;99.90;;;;;;6096339;23;20018;-25
2021/01/29 08:14:45;;;;;;;18.95;9.25;;;19.20;99.90;;;;;;6096337;23;20037;-25
2021/01/29 08:17:29;;;;;;;16.27;9.40;;;19.40;99.90;;;;;;6097442;23;20052;-25
2021/01/29 08:20:26;;;;;;;17.80;8.55;;;19.40;99.90;;;;;;6098373;23;20006;-25
2021/01/29 08:22:57;;;;;;;11.57;7.63;;;19.70;99.90;;;;;;6098350;23;20009;-25
2021/01/29 08:25:39;;;;;;;18.13;7.30;;;19.80;99.90;;;;;;6098588;23;20058;-25
2021/01/29 08:28:49;;;;;;;12.25;8.23;;;20.00;99.90;;;;;;6098190;23;20022;-25
2021/01/29 08:31:24;;;;;;;12.70;7.63;;;20.10;99.90;;;;;;6098519;23;20325;-25
2021/01/29 08:34:21;;;;;;;18.83;8.88;;;20.20;99.90;;;;;;6098437;23;19998;-25
2021/01/29 08:37:08;;;;;;;13.52;7.47;;;20.20;99.90;;;;;;6072731;23;20034;-25
2021/01/29 08:39:45;;;;;;;16.90;7.65;;;20.30;99.90;;;;;;6098463;23;20016;-25
2021/01/29 08:42:38;;;;;;;24.00;6.90;;;20.40;99.90;;;;;;6098254;23;20006;-25
2021/01/29 08:45:23;;;;;;;13.38;7.60;;;20.40;99.90;;;;;;6098044;23;20006;-25
2021/01/29 08:48:06;;;;;;;18.55;10.68;;;20.40;99.90;;;;;;6097823;23;20134;-25
2021/01/29 08:50:56;;;;;;;24.60;20.00;;;20.40;99.90;;;;;;6097805;23;20005;-26
2021/01/29 08:53:37;;;;;;;22.27;12.18;;;20.50;99.90;;;;;;6097568;23;20010;-25
2021/01/29 08:56:16;;;;;;;15.68;11.00;;;20.50;99.90;;;;;;6097955;23;20061;-26
2021/01/29 08:59:02;;;;;;;17.83;11.10;;;20.50;99.90;;;;;;6098252;23;20018;-25
2021/01/29 09:02:03;;;;;;;20.92;9.30;;;20.50;99.90;;;;;;6097808;23;20426;-25
2021/01/29 09:04:50;;;;;;;14.45;9.00;;;20.50;99.90;;;;;;6071526;23;20501;-25
2021/01/29 09:07:27;;;;;;;17.10;12.43;;;20.50;99.90;;;;;;6071005;23;20391;-25
2021/01/29 09:10:04;;;;;;;32.08;17.50;;;20.60;99.90;;;;;;6096935;23;20006;-25
2021/01/29 09:12:32;;;;;;;42.15;30.73;;;20.70;99.90;;;;;;6096248;23;20442;-23
2021/01/29 09:15:03;;;;;;;62.78;47.25;;;20.70;99.90;;;;;;6096302;23;20027;-23
2021/01/29 09:17:47;;;;;;;44.25;24.42;;;20.80;99.90;;;;;;6096441;23;20006;-25
2021/01/29 09:20:21;;;;;;;27.38;18.30;;;20.80;99.90;;;;;;6096564;23;20080;-25
2021/01/29 09:23:07;;;;;;;22.13;13.75;;;20.80;99.90;;;;;;6096398;23;20422;-25
2021/01/29 09:25:40;;;;;;;16.33;9.40;;;20.80;99.90;;;;;;6096266;23;20010;-25
2021/01/29 09:28:30;;;;;;;10.38;8.27;;;20.90;99.90;;;;;;6096165;23;20015;-25
2021/01/29 09:30:56;;;;;;;10.68;6.82;;;20.90;99.90;;;;;;6096603;23;20006;-25
2021/01/29 09:33:49;;;;;;;9.40;6.45;;;20.90;99.90;;;;;;6096572;23;20009;-25
2021/01/29 09:36:24;;;;;;;96.57;75.43;;;21.00;99.90;;;;;;6070578;23;20066;-25
2021/01/29 09:38:56;;;;;;;72.20;55.65;;;21.00;99.90;;;;;;6096482;23;20378;-25
2021/01/29 09:41:27;;;;;;;73.32;56.35;;;21.00;99.90;;;;;;6095654;23;20391;-25
2021/01/29 09:44:06;;;;;;;41.35;30.85;;;21.10;99.90;;;;;;6096787;23;20016;-25
2021/01/29 09:46:37;;;;;;;35.03;23.45;;;21.10;99.90;;;;;;6095265;23;20007;-25
2021/01/29 09:49:05;;;;;;;28.05;17.35;;;21.10;99.90;;;;;;6096035;23;20050;-25
2021/01/29 09:51:37;;;;;;;21.15;13.93;;;21.10;99.90;;;;;;6093711;23;20006;-25
2021/01/29 09:54:14;;;;;;;17.02;12.90;;;21.20;99.90;;;;;;6096044;23;20007;-25
2021/01/29 09:56:45;;;;;;;12.88;9.10;;;21.20;99.90;;;;;;6095531;23;20338;-25
2021/01/29 09:59:14;;;;;;;14.48;8.88;;;21.20;99.90;;;;;;6095955;23;20006;-25
2021/01/29 10:01:52;;;;;;;11.82;7.70;;;21.30;99.90;;;;;;6070332;23;20007;-25
2021/01/29 10:04:34;;;;;;;14.82;7.72;;;21.30;99.90;;;;;;6095743;23;20024;-25
2021/01/29 10:07:04;;;;;;;10.57;6.82;;;21.30;99.90;;;;;;6096112;23;20609;-25
2021/01/29 10:09:36;;;;;;;11.30;7.07;;;21.30;99.90;;;;;;6095722;23;20006;-25
2021/01/29 10:12:19;;;;;;;10.82;7.32;;;21.30;99.90;;;;;;6095371;23;20426;-23
2021/01/29 10:15:12;;;;;;;15.95;9.13;;;21.30;99.90;;;;;;6095327;23;20077;-24
2021/01/29 10:17:46;;;;;;;10.88;8.27;;;21.40;99.90;;;;;;6095566;23;20013;-23
2021/01/29 10:20:22;;;;;;;10.57;6.88;;;21.40;99.90;;;;;;6095571;23;20003;-23
2021/01/29 10:23:28;;;;;;;9.55;6.38;;;21.50;99.90;;;;;;6095590;23;20006;-23
2021/01/29 10:26:09;;;;;;;10.77;5.90;;;21.40;99.90;;;;;;6094404;23;20496;-23
2021/01/29 10:29:11;;;;;;;9.80;5.75;;;21.40;99.90;;;;;;6095048;23;20010;-24
2021/01/29 10:32:04;;;;;;;11.50;6.18;;;21.40;99.90;;;;;;6095062;23;20053;-24
2021/01/29 10:34:38;;;;;;;12.68;6.70;;;21.50;99.90;;;;;;6094774;23;20097;-23
2021/01/29 10:37:16;;;;;;;12.50;6.00;;;21.50;99.90;;;;;;6095777;23;20080;-23
2021/01/29 10:40:27;;;;;;;10.65;7.15;;;21.60;99.90;;;;;;6094705;23;20391;-24
2021/01/29 10:43:34;;;;;;;15.80;7.63;;;21.60;99.90;;;;;;6057298;23;20038;-23
2021/01/29 10:46:23;;;;;;;13.02;8.00;;;21.70;99.90;;;;;;6068904;23;20011;-24
2021/01/29 10:49:15;;;;;;;11.43;7.10;;;21.70;99.90;;;;;;6093591;23;20093;-24
2021/01/29 10:52:11;;;;;;;12.20;8.02;;;21.80;99.90;;;;;;6069483;23;20006;-23
2021/01/29 10:54:40;;;;;;;10.88;6.97;;;21.80;99.90;;;;;;6094890;23;20057;-24
2021/01/29 10:57:26;;;;;;;14.50;7.30;;;21.90;99.90;;;;;;6094021;23;20006;-23
2021/01/29 10:59:57;;;;;;;11.30;6.72;;;21.90;99.90;;;;;;6094470;23;19999;-23
2021/01/29 11:02:33;;;;;;;13.15;7.53;;;22.00;99.90;;;;;;6093327;23;19999;-23
2021/01/29 11:05:11;;;;;;;23.02;16.98;;;22.10;99.90;;;;;;6094154;23;20003;-24
2021/01/29 11:07:38;;;;;;;;;;;22.10;99.90;;;;;;6094705;23;20002;-23
2021/01/29 11:10:08;;;;;;;13.88;5.63;;;22.20;99.90;;;;;;6093722;23;19909;-23
2021/01/29 11:12:42;;;;;;;13.48;5.93;;;22.30;99.90;;;;;;6094712;23;20353;-24
2021/01/29 11:15:26;;;;;;;11.07;4.90;;;22.30;99.90;;;;;;6093976;23;20006;-23
2021/01/29 11:18:00;;;;;;;10.15;4.72;;;22.30;99.90;;;;;;6094827;23;20021;-23
2021/01/29 11:20:34;;;;;;;10.80;5.22;;;22.30;99.90;;;;;;6094287;23;20017;-23
2021/01/29 11:23:24;;;;;;;5.70;4.65;;;22.40;99.90;;;;;;6094571;23;20337;-24
2021/01/29 11:25:53;;;;;;;6.85;4.55;;;22.40;99.90;;;;;;6094745;23;20002;-23
2021/01/29 11:28:40;;;;;;;14.55;4.63;;;22.40;99.90;;;;;;6094567;23;20533;-24
2021/01/29 11:31:15;;;;;;;13.48;4.80;;;22.40;99.90;;;;;;6094713;23;20003;-23
2021/01/29 11:33:46;;;;;;;10.75;5.00;;;22.50;99.90;;;;;;6094706;23;20005;-24
2021/01/29 11:36:18;;;;;;;10.73;5.43;;;22.50;99.90;;;;;;6068742;23;20416;-24
2021/01/29 11:39:07;;;;;;;13.25;4.93;;;22.40;99.90;;;;;;6095028;23;20002;-23
2021/01/29 11:41:42;;;;;;;11.48;4.72;;;22.50;99.90;;;;;;6095106;23;20021;-23
2021/01/29 11:44:43;;;;;;;9.52;4.90;;;22.50;99.90;;;;;;6069445;23;20078;-24
2021/01/29 11:47:17;;;;;;;10.48;5.40;;;22.50;99.90;;;;;;6031276;23;20011;-23
2021/01/29 11:50:01;;;;;;;9.82;5.00;;;22.50;99.90;;;;;;6094497;23;20330;-23
2021/01/29 11:52:45;;;;;;;6.03;4.32;;;22.50;99.90;;;;;;6095831;23;20324;-29
2021/01/29 11:55:11;;;;;;;10.73;5.45;;;22.60;99.90;;;;;;6096873;23;20085;-24
2021/01/29 11:58:15;;;;;;;12.02;5.53;;;22.60;99.90;;;;;;6096706;23;20002;-25
2021/01/29 12:01:16;;;;;;;7.22;4.80;;;22.60;99.90;;;;;;6062458;23;20006;-24
2021/01/29 12:03:56;;;;;;;9.98;4.60;;;22.70;99.90;;;;;;6090735;23;20013;-24
2021/01/29 12:06:22;;;;;;;5.75;4.63;;;22.70;99.90;;;;;;6096924;23;20006;-24
2021/01/29 12:09:16;;;;;;;11.38;4.75;;;22.80;99.90;;;;;;6096451;23;20329;-24
2021/01/29 12:11:59;;;;;;;7.68;4.78;;;22.80;99.90;;;;;;6085863;23;20026;-24
2021/01/29 12:14:44;;;;;;;10.18;5.60;;;22.90;99.90;;;;;;6096776;23;20002;-23
2021/01/29 12:17:12;;;;;;;14.18;6.30;;;22.90;99.90;;;;;;6096421;23;20010;-23
2021/01/29 12:19:46;;;;;;;7.30;5.07;;;23.00;99.90;;;;;;6096358;23;20007;-23
2021/01/29 12:22:27;;;;;;;7.95;5.40;;;23.00;99.90;;;;;;6097028;23;20073;-23
2021/01/29 12:25:13;;;;;;;9.75;5.18;;;23.10;99.90;;;;;;6097035;23;20010;-24
2021/01/29 12:28:15;;;;;;;8.25;4.20;;;23.20;99.90;;;;;;6071219;23;20018;-23
2021/01/29 12:30:50;;;;;;;9.30;4.25;;;23.20;99.90;;;;;;5976161;23;20006;-24
2021/01/29 12:33:22;;;;;;;11.27;3.78;;;23.30;99.90;;;;;;6097656;23;20279;-24
2021/01/29 12:35:55;;;;;;;8.80;4.10;;;23.40;99.90;;;;;;6096593;23;20008;-24
2021/01/29 12:38:43;;;;;;;6.85;3.90;;;23.30;99.90;;;;;;6096583;23;20011;-23
2021/01/29 12:41:43;;;;;;;17.75;10.68;;;23.30;99.90;;;;;;6095458;23;20086;-24
2021/01/29 12:44:35;;;;;;;16.13;10.50;;;23.30;99.90;;;;;;6096037;23;20437;-23
2021/01/29 12:47:11;;;;;;;28.92;14.10;;;23.30;99.90;;;;;;6096575;23;20011;-24
2021/01/29 12:49:55;;;;;;;18.75;11.02;;;23.30;99.90;;;;;;6096592;23;20077;-24
2021/01/29 12:52:40;;;;;;;19.10;9.77;;;23.30;99.90;;;;;;6096111;23;20006;-24
2021/01/29 12:55:19;;;;;;;19.80;8.85;;;23.30;99.90;;;;;;6096270;23;20002;-23
2021/01/29 12:58:03;;;;;;;14.73;8.27;;;23.40;99.90;;;;;;6096584;23;20033;-24
2021/01/29 13:00:38;;;;;;;15.65;7.65;;;23.40;99.90;;;;;;6096323;23;20073;-24
2021/01/29 13:03:38;;;;;;;14.15;7.63;;;23.50;99.90;;;;;;6096036;23;20010;-24
2021/01/29 13:06:19;;;;;;;13.93;7.10;;;23.60;99.90;;;;;;6096325;23;20011;-24
2021/01/29 13:08:45;;;;;;;18.10;7.20;;;23.60;99.90;;;;;;6096689;23;20429;-24
2021/01/29 13:11:55;;;;;;;11.65;6.70;;;23.60;99.90;;;;;;6096484;23;20011;-24
2021/01/29 13:14:41;;;;;;;21.05;7.10;;;23.60;99.90;;;;;;5956221;24;20016;-24
2021/01/29 13:17:23;;;;;;;26.67;8.02;;;23.60;99.90;;;;;;5978692;24;20012;-24
2021/01/29 13:19:59;;;;;;;15.75;7.55;;;23.70;99.90;;;;;;5979092;24;20298;-24
2021/01/29 13:22:37;;;;;;;18.90;6.88;;;23.70;99.90;;;;;;5979728;24;20434;-24
2021/01/29 13:25:06;;;;;;;22.90;7.00;;;23.70;99.90;;;;;;6004371;23;20033;-24
2021/01/29 13:27:36;;;;;;;18.67;6.35;;;23.70;99.90;;;;;;6096448;23;20006;-24
2021/01/29 13:30:28;;;;;;;20.33;7.00;;;23.80;99.90;;;;;;6096176;23;20002;-24
2021/01/29 13:32:55;;;;;;;16.80;6.75;;;23.80;99.90;;;;;;6096526;23;20058;-23
2021/01/29 13:35:26;;;;;;;14.15;5.75;;;23.80;99.90;;;;;;6070647;23;20009;-24
2021/01/29 13:38:05;;;;;;;18.20;6.80;;;23.90;99.90;;;;;;6096555;23;20374;-23
2021/01/29 13:40:31;;;;;;;11.30;6.10;;;23.90;99.90;;;;;;6096298;23;20385;-24
2021/01/29 13:43:07;;;;;;;12.20;5.75;;;23.90;99.90;;;;;;6096679;23;20075;-24